DAUL

Details ICAO DAUL (LOO)
Name LAGHOUAT
Region Algeria
Timezone Africa/Algiers (UTC+1.0)
Plans Departing 4
Arriving 6
Stats Elevation 2,510 ft / 765 m (AMSL)
Location 33.764384° 2.928345°
Runways 2
Magnetic Variation 0.904° E
Sunrise 2017-12-18 06:48:56 UTC / 2017-12-18 07:48:56 Local
Sunset 2017-12-18 16:43:33 UTC / 2017-12-18 17:43:33 Local
Advertisement - Login to hide

Runways

ID Width Length Bearing (true) Bearing (mag) Surface Threshold Offset Overrun Length
16L 148 ft / 45 m 12,512 ft / 3,814 m 157.05° 156.15° Asphalt 0 ft / 0 m 328 ft / 100 m
16R 148 ft / 45 m 12,503 ft / 3,811 m 157.03° 156.13° Asphalt 0 ft / 0 m 0 ft / 0 m
34L 148 ft / 45 m 12,503 ft / 3,811 m 337.04° 336.14° Asphalt 0 ft / 0 m 610 ft / 186 m
34R 148 ft / 45 m 12,512 ft / 3,814 m 337.06° 336.16° Asphalt 0 ft / 0 m 328 ft / 100 m

Map

Weather


0- 5 10 15 20 25 30 35+ Temperature / ° C

Clouds and Precipitation
Forecast for 2017-12-19 00:00 UTC. Updated an hour ago

Ground ~20,000 ft ~40,000 ft Winds

METAR

DAUL 182000Z 11006KT 9999 FEW030 04/M02 Q1025

TAF

Not found
Warning: Do not use this data for real-world aviation or navigation. No guarantee of current accuracy is given.